Time;durP1;ratioP1;P1;durP2;ratioP2;P2;SDS_P1;SDS_P2;PMS_P1;PMS_P2;Temp;Humidity;BMP_temperature;BMP_pressure;BME280_temperature;BME280_humidity;BME280_pressure;Samples;Min_cycle;Max_cycle;Signal;HPM_P1;HPM_P2
2022/10/03 00:02:16;;;;;;;;;;;12.70;99.90;;;;;;4984134;28;19933;-76
2022/10/03 00:04:53;;;;;;;;;;;12.70;99.90;;;;;;4980042;28;20507;-74
2022/10/03 00:07:31;;;;;;;;;;;12.70;99.90;;;;;;4999418;28;19926;-76
2022/10/03 00:10:04;;;;;;;;;;;12.70;99.90;;;;;;4977869;28;19930;-76
2022/10/03 00:12:39;;;;;;;;;;;12.70;99.90;;;;;;4984297;28;19933;-76
2022/10/03 00:15:11;;;;;;;;;;;12.60;99.90;;;;;;4981053;28;20159;-76
2022/10/03 00:17:42;;;;;;;;;;;12.60;99.90;;;;;;4976871;28;22357;-75
2022/10/03 00:20:16;;;;;;;;;;;12.60;99.90;;;;;;4976223;28;20024;-76
2022/10/03 00:22:48;;;;;;;;;;;12.60;99.90;;;;;;4980059;28;20017;-76
2022/10/03 00:25:21;;;;;;;;;;;12.60;99.90;;;;;;4980681;28;20020;-76
2022/10/03 00:27:50;;;;;;;;;;;12.60;99.90;;;;;;4976507;28;19926;-76
2022/10/03 00:30:19;;;;;;;;;;;12.50;99.90;;;;;;4976160;28;19934;-76
2022/10/03 00:32:56;;;;;;;;;;;12.50;99.90;;;;;;4983454;28;19964;-76
2022/10/03 00:35:30;;;;;;;;;;;12.50;99.90;;;;;;4972527;28;20096;-76
2022/10/03 00:38:04;;;;;;;;;;;12.50;99.90;;;;;;4984489;28;20407;-76
2022/10/03 00:40:55;;;;;;;;;;;12.50;99.90;;;;;;4983837;28;20391;-75
2022/10/03 00:43:45;;;;;;;;;;;12.40;99.90;;;;;;4999745;28;19933;-76
2022/10/03 00:46:27;;;;;;;;;;;12.40;99.90;;;;;;4980716;28;19996;-76
2022/10/03 00:49:06;;;;;;;;;;;12.40;99.90;;;;;;4947567;28;19926;-76
2022/10/03 00:51:43;;;;;;;;;;;12.40;99.90;;;;;;4973920;28;20064;-76
2022/10/03 00:54:23;;;;;;;;;;;12.40;99.90;;;;;;4981094;28;19929;-76
2022/10/03 00:57:02;;;;;;;;;;;12.30;99.90;;;;;;4978788;28;19932;-76
2022/10/03 00:59:39;;;;;;;;;;;12.30;99.90;;;;;;4979974;28;19926;-76
2022/10/03 01:02:25;;;;;;;;;;;12.30;99.90;;;;;;4975504;28;19933;-76
2022/10/03 01:04:55;;;;;;;;;;;12.30;99.90;;;;;;4979895;28;19932;-76
2022/10/03 01:07:29;;;;;;;;;;;12.30;99.90;;;;;;4981763;28;19972;-76
2022/10/03 01:10:03;;;;;;;;;;;12.20;99.90;;;;;;4974205;28;19925;-75
2022/10/03 01:12:37;;;;;;;;;;;12.20;99.90;;;;;;4979193;28;20024;-75
2022/10/03 01:15:14;;;;;;;;;;;12.20;99.90;;;;;;4978564;28;19941;-76
2022/10/03 01:17:48;;;;;;;;;;;12.20;99.90;;;;;;4975759;28;19984;-76
2022/10/03 01:20:26;;;;;;;;;;;12.20;99.90;;;;;;4977572;28;20016;-76
2022/10/03 01:23:14;;;;;;;;;;;12.10;99.90;;;;;;4991868;28;19932;-76
2022/10/03 01:25:46;;;;;;;;;;;12.10;99.90;;;;;;4981170;28;19934;-76
2022/10/03 01:31:13;;;;;;;;;;;12.10;99.90;;;;;;4981853;28;19926;-76
2022/10/03 01:33:44;;;;;;;;;;;12.10;99.90;;;;;;4979395;28;19937;-76
2022/10/03 01:36:15;;;;;;;;;;;12.10;99.90;;;;;;4973139;28;20412;-76
2022/10/03 01:38:44;;;;;;;;;;;12.00;99.90;;;;;;4974861;28;20463;-76
2022/10/03 01:41:15;;;;;;;;;;;12.00;99.90;;;;;;4981462;28;19925;-76
2022/10/03 01:43:47;;;;;;;;;;;12.00;99.90;;;;;;4972806;28;20032;-76
2022/10/03 01:46:17;;;;;;;;;;;12.00;99.90;;;;;;4974252;28;20506;-75
2022/10/03 01:48:50;;;;;;;;;;;11.90;99.90;;;;;;4978457;28;20370;-76
2022/10/03 01:51:21;;;;;;;;;;;11.90;99.90;;;;;;4980530;28;20016;-76
2022/10/03 01:53:57;;;;;;;;;;;11.90;99.90;;;;;;4979391;28;20012;-76
2022/10/03 01:56:26;;;;;;;;;;;11.90;99.90;;;;;;4971996;28;20383;-76
2022/10/03 01:58:57;;;;;;;;;;;11.90;99.90;;;;;;4973652;28;19948;-76
2022/10/03 02:01:29;;;;;;;;;;;11.90;99.90;;;;;;4972959;28;19940;-76
2022/10/03 02:04:03;;;;;;;;;;;11.90;99.90;;;;;;4979245;28;20400;-76
2022/10/03 02:06:34;;;;;;;;;;;11.90;99.90;;;;;;4977587;28;19948;-76
2022/10/03 02:09:05;;;;;;;;;;;11.90;99.90;;;;;;4978785;28;20076;-76
2022/10/03 02:11:34;;;;;;;;;;;11.80;99.90;;;;;;4976803;28;20388;-76
2022/10/03 02:14:11;;;;;;;;;;;11.70;99.90;;;;;;4977936;28;19932;-76
2022/10/03 02:16:40;;;;;;;;;;;11.70;99.90;;;;;;4978393;28;20020;-76
2022/10/03 02:19:12;;;;;;;;;;;11.60;99.90;;;;;;4976725;28;20391;-76
2022/10/03 02:21:46;;;;;;;;;;;11.60;99.90;;;;;;4985111;28;20388;-76
2022/10/03 02:24:22;;;;;;;;;;;11.60;99.90;;;;;;4980015;28;19926;-76
2022/10/03 02:27:13;;;;;;;;;;;11.60;99.90;;;;;;4978740;28;19969;-76
2022/10/03 02:29:51;;;;;;;;;;;11.50;99.90;;;;;;4965528;28;20408;-76
2022/10/03 02:32:46;;;;;;;;;;;11.50;99.90;;;;;;4973570;28;19980;-76
2022/10/03 02:35:25;;;;;;;;;;;11.50;99.90;;;;;;4988886;28;20454;-76
2022/10/03 02:38:18;;;;;;;;;;;11.40;99.90;;;;;;5001410;28;19933;-76
2022/10/03 02:40:59;;;;;;;;;;;11.40;99.90;;;;;;4977616;28;19937;-75
2022/10/03 02:43:41;;;;;;;;;;;11.40;99.90;;;;;;4987923;28;19926;-76
2022/10/03 02:46:32;;;;;;;;;;;11.30;99.90;;;;;;4967365;28;19930;-76
2022/10/03 02:49:08;;;;;;;;;;;11.30;99.90;;;;;;4978723;28;19932;-76
2022/10/03 02:51:55;;;;;;;;;;;11.30;99.90;;;;;;4986869;28;19933;-76
2022/10/03 02:54:52;;;;;;;;;;;11.20;99.90;;;;;;4983323;28;19930;-76
2022/10/03 02:57:32;;;;;;;;;;;11.20;99.90;;;;;;4988768;28;19926;-75
2022/10/03 03:00:08;;;;;;;;;;;11.20;99.90;;;;;;4980174;28;19926;-76
2022/10/03 03:03:08;;;;;;;;;;;11.20;99.90;;;;;;4986168;28;20387;-76
2022/10/03 03:05:44;;;;;;;;;;;11.10;99.90;;;;;;4982318;28;20428;-76
2022/10/03 03:08:27;;;;;;;;;;;11.10;99.90;;;;;;4981588;28;19926;-76
2022/10/03 03:11:15;;;;;;;;;;;11.10;99.90;;;;;;4983095;28;20474;-76
2022/10/03 03:14:01;;;;;;;;;;;11.10;99.90;;;;;;4909512;29;19949;-76
2022/10/03 03:16:40;;;;;;;;;;;11.10;99.90;;;;;;4978513;28;21596;-76
2022/10/03 03:19:15;;;;;;;;;;;11.10;99.90;;;;;;4982882;28;19926;-76
2022/10/03 03:21:47;;;;;;;;;;;11.10;99.90;;;;;;4981479;28;20025;-76
2022/10/03 03:24:24;;;;;;;;;;;11.10;99.90;;;;;;4977688;28;19953;-76
2022/10/03 03:27:05;;;;;;;;;;;11.00;99.90;;;;;;4980634;28;19976;-76
2022/10/03 03:29:38;;;;;;;;;;;11.10;99.90;;;;;;4976758;28;20020;-76
2022/10/03 03:32:10;;;;;;;;;;;11.10;99.90;;;;;;4977865;28;19925;-76
2022/10/03 03:34:48;;;;;;;;;;;11.00;99.90;;;;;;4983831;28;20036;-76
2022/10/03 03:37:19;;;;;;;;;;;11.00;99.90;;;;;;4983905;28;20012;-75
2022/10/03 03:40:01;;;;;;;;;;;11.00;99.90;;;;;;4994017;28;20085;-76
2022/10/03 03:42:48;;;;;;;;;;;11.00;99.90;;;;;;4978250;28;19930;-76
2022/10/03 03:45:19;;;;;;;;;;;10.90;99.90;;;;;;4984671;28;20126;-76
2022/10/03 03:47:56;;;;;;;;;;;10.90;99.90;;;;;;4982976;28;20028;-75
2022/10/03 03:50:36;;;;;;;;;;;10.90;99.90;;;;;;4991549;28;19944;-75
2022/10/03 03:53:15;;;;;;;;;;;10.90;99.90;;;;;;4982843;28;20392;-76
2022/10/03 03:55:49;;;;;;;;;;;10.90;99.90;;;;;;4981598;28;20016;-76
2022/10/03 03:58:20;;;;;;;;;;;10.90;99.90;;;;;;4980137;28;19956;-76
2022/10/03 04:01:02;;;;;;;;;;;10.90;99.90;;;;;;4983618;28;19936;-76
2022/10/03 04:03:37;;;;;;;;;;;10.90;99.90;;;;;;4977182;28;19930;-76
2022/10/03 04:06:12;;;;;;;;;;;10.80;99.90;;;;;;4983191;28;20033;-76
2022/10/03 04:08:46;;;;;;;;;;;10.80;99.90;;;;;;4980147;28;20022;-75
2022/10/03 04:11:21;;;;;;;;;;;10.80;99.90;;;;;;4978612;28;20040;-76
2022/10/03 04:13:57;;;;;;;;;;;10.80;99.90;;;;;;4981168;28;19929;-75
2022/10/03 04:19:17;;;;;;;;;;;10.80;99.90;;;;;;4982463;28;20399;-75
2022/10/03 04:21:59;;;;;;;;;;;10.80;99.90;;;;;;4978270;28;20035;-75
2022/10/03 04:24:33;;;;;;;;;;;10.80;99.90;;;;;;4980083;28;19977;-76
2022/10/03 04:27:11;;;;;;;;;;;10.80;99.90;;;;;;4979646;28;20100;-75
2022/10/03 04:29:52;;;;;;;;;;;10.80;99.90;;;;;;4984743;28;20021;-75
2022/10/03 04:32:25;;;;;;;;;;;10.80;99.90;;;;;;4982987;28;19940;-75
2022/10/03 04:35:05;;;;;;;;;;;10.80;99.90;;;;;;4993251;28;20384;-76
2022/10/03 04:37:38;;;;;;;;;;;10.70;99.90;;;;;;4978252;28;19936;-75
2022/10/03 04:40:16;;;;;;;;;;;10.70;99.90;;;;;;4984565;28;20380;-75
2022/10/03 04:42:50;;;;;;;;;;;10.70;99.90;;;;;;4983634;28;20020;-75
2022/10/03 04:45:27;;;;;;;;;;;10.70;99.90;;;;;;4984299;28;19933;-76
2022/10/03 04:48:05;;;;;;;;;;;10.70;99.90;;;;;;4984435;28;19940;-76
2022/10/03 04:50:36;;;;;;;;;;;10.70;99.90;;;;;;4978313;28;19926;-75
2022/10/03 04:53:15;;;;;;;;;;;10.60;99.90;;;;;;4980431;28;19934;-75
2022/10/03 04:55:46;;;;;;;;;;;10.70;99.90;;;;;;4979011;28;20016;-75
2022/10/03 04:58:24;;;;;;;;;;;10.70;99.90;;;;;;4983710;28;19926;-75
2022/10/03 05:00:57;;;;;;;;;;;10.60;99.90;;;;;;4979989;28;19926;-75
2022/10/03 05:03:28;;;;;;;;;;;10.60;99.90;;;;;;4994295;28;20435;-75
2022/10/03 05:05:57;;;;;;;;;;;10.60;99.90;;;;;;4996510;28;20450;-75
2022/10/03 05:08:31;;;;;;;;;;;10.60;99.90;;;;;;4987823;28;20407;-75
2022/10/03 05:11:06;;;;;;;;;;;10.60;99.90;;;;;;4978823;28;20020;-75
2022/10/03 05:13:39;;;;;;;;;;;10.60;99.90;;;;;;4982018;28;19976;-75
2022/10/03 05:16:09;;;;;;;;;;;10.50;99.90;;;;;;4981095;28;20021;-75
2022/10/03 05:18:40;;;;;;;;;;;10.50;99.90;;;;;;4975282;28;19926;-75
2022/10/03 05:21:11;;;;;;;;;;;10.50;99.90;;;;;;4976490;28;19988;-75
2022/10/03 05:23:44;;;;;;;;;;;10.50;99.90;;;;;;4985173;28;20011;-75
2022/10/03 05:26:15;;;;;;;;;;;10.50;99.90;;;;;;4978483;28;19964;-76
2022/10/03 05:28:49;;;;;;;;;;;10.60;99.90;;;;;;4973386;28;19929;-75
2022/10/03 05:31:24;;;;;;;;;;;10.50;99.90;;;;;;4977904;28;19930;-76
2022/10/03 05:33:53;;;;;;;;;;;10.50;99.90;;;;;;4976191;28;19925;-76
2022/10/03 05:36:27;;;;;;;;;;;10.50;99.90;;;;;;4974783;28;20285;-76
2022/10/03 05:39:13;;;;;;;;;;;10.40;99.90;;;;;;4978703;28;19930;-76
2022/10/03 05:41:44;;;;;;;;;;;10.40;99.90;;;;;;4981001;28;20028;-75
2022/10/03 05:44:16;;;;;;;;;;;10.40;99.90;;;;;;4998450;28;19988;-76
2022/10/03 05:46:50;;;;;;;;;;;10.40;99.90;;;;;;4983679;28;19997;-75
2022/10/03 05:49:28;;;;;;;;;;;10.40;99.90;;;;;;4978856;28;19969;-75
2022/10/03 05:52:07;;;;;;;;;;;10.40;99.90;;;;;;4979601;28;20453;-76
2022/10/03 05:54:47;;;;;;;;;;;10.40;99.90;;;;;;4976045;28;19972;-75
2022/10/03 05:57:34;;;;;;;;;;;10.40;99.90;;;;;;4997977;28;20054;-75
2022/10/03 06:00:08;;;;;;;;;;;10.40;99.90;;;;;;5000330;28;20008;-76
2022/10/03 06:03:08;;;;;;;;;;;10.40;99.90;;;;;;4976652;28;19937;-75
2022/10/03 06:05:42;;;;;;;;;;;10.40;99.90;;;;;;4939149;28;19945;-76
2022/10/03 06:08:21;;;;;;;;;;;10.40;99.90;;;;;;4970703;28;20028;-75
2022/10/03 06:10:52;;;;;;;;;;;10.40;99.90;;;;;;4978507;28;19930;-75
2022/10/03 06:13:20;;;;;;;;;;;10.30;99.90;;;;;;4983387;28;19965;-75
2022/10/03 06:15:57;;;;;;;;;;;10.30;99.90;;;;;;4982268;28;19949;-76
2022/10/03 06:18:41;;;;;;;;;;;10.30;99.90;;;;;;4982737;28;19930;-76
2022/10/03 06:21:15;;;;;;;;;;;10.30;99.90;;;;;;4971746;28;20325;-75
2022/10/03 06:23:58;;;;;;;;;;;10.30;99.90;;;;;;4978772;28;19926;-76
2022/10/03 06:26:33;;;;;;;;;;;10.30;99.90;;;;;;4978507;28;20331;-75
2022/10/03 06:29:17;;;;;;;;;;;10.30;99.90;;;;;;4977445;28;20355;-75
2022/10/03 06:32:03;;;;;;;;;;;10.30;99.90;;;;;;4976838;28;20024;-76
2022/10/03 06:34:40;;;;;;;;;;;10.30;99.90;;;;;;4978550;28;20446;-75
2022/10/03 06:37:18;;;;;;;;;;;10.30;99.90;;;;;;4978482;28;20016;-75
2022/10/03 06:40:18;;;;;;;;;;;10.30;99.90;;;;;;4976223;28;19926;-75
2022/10/03 06:43:03;;;;;;;;;;;10.30;99.90;;;;;;4979387;28;20016;-75
2022/10/03 06:45:47;;;;;;;;;;;10.30;99.90;;;;;;4972833;28;20362;-75
2022/10/03 06:48:20;;;;;;;;;;;10.30;99.90;;;;;;4975413;28;20455;-75
2022/10/03 06:51:07;;;;;;;;;;;10.30;99.90;;;;;;4974768;28;19925;-75
2022/10/03 06:53:51;;;;;;;;;;;10.30;99.90;;;;;;4978797;28;20317;-75
2022/10/03 06:56:39;;;;;;;;;;;10.40;99.90;;;;;;4981115;28;19934;-75
2022/10/03 06:59:18;;;;;;;;;;;10.30;99.90;;;;;;4972543;28;20466;-75
2022/10/03 07:01:51;;;;;;;;;;;10.30;99.90;;;;;;4968694;28;20315;-75
2022/10/03 07:04:43;;;;;;;;;;;10.40;99.90;;;;;;4973795;28;21129;-75
2022/10/03 07:07:22;;;;;;;;;;;10.40;99.90;;;;;;4978875;28;19980;-75
2022/10/03 07:10:03;;;;;;;;;;;10.40;99.90;;;;;;4981146;28;20016;-75
2022/10/03 07:12:51;;;;;;;;;;;10.40;99.90;;;;;;4974172;28;20020;-75
2022/10/03 07:15:36;;;;;;;;;;;10.40;99.90;;;;;;4988626;28;19926;-75
2022/10/03 07:18:17;;;;;;;;;;;10.40;99.90;;;;;;4975998;28;19972;-75
2022/10/03 07:21:00;;;;;;;;;;;10.40;99.90;;;;;;4973193;28;19958;-75
2022/10/03 07:23:47;;;;;;;;;;;10.40;99.90;;;;;;4979578;28;19929;-75
2022/10/03 07:26:47;;;;;;;;;;;10.40;99.90;;;;;;4978247;28;20377;-75
2022/10/03 07:29:35;;;;;;;;;;;10.40;99.90;;;;;;4973897;28;19945;-75
2022/10/03 07:32:13;;;;;;;;;;;10.40;99.90;;;;;;4964854;28;19937;-75
2022/10/03 07:34:54;;;;;;;;;;;10.40;99.90;;;;;;4980913;28;19926;-75
2022/10/03 07:40:36;;;;;;;;;;;10.50;99.90;;;;;;4951476;28;20428;-75
2022/10/03 07:43:21;;;;;;;;;;;10.50;99.90;;;;;;4977708;28;19933;-75
2022/10/03 07:46:03;;;;;;;;;;;10.50;99.90;;;;;;4985200;28;20383;-76
2022/10/03 07:48:44;;;;;;;;;;;10.50;99.90;;;;;;4970347;28;19961;-75
2022/10/03 07:51:16;;;;;;;;;;;10.50;99.90;;;;;;4991783;28;19936;-75
2022/10/03 07:54:01;;;;;;;;;;;10.50;99.90;;;;;;4982330;28;19961;-75
2022/10/03 07:56:43;;;;;;;;;;;10.50;99.90;;;;;;4977160;28;19926;-75
2022/10/03 07:59:32;;;;;;;;;;;10.50;99.90;;;;;;4975687;28;19937;-75
2022/10/03 08:02:08;;;;;;;;;;;10.50;99.90;;;;;;4976164;28;20471;-81
2022/10/03 08:04:45;;;;;;;;;;;10.50;99.90;;;;;;4977723;28;19945;-75
2022/10/03 08:07:24;;;;;;;;;;;10.50;99.90;;;;;;4976510;28;20359;-75
2022/10/03 08:09:58;;;;;;;;;;;10.50;99.90;;;;;;4968085;28;20527;-75
2022/10/03 08:12:32;;;;;;;;;;;10.60;99.90;;;;;;4975887;28;22070;-75
2022/10/03 08:15:07;;;;;;;;;;;10.70;99.90;;;;;;4972117;28;19945;-75
2022/10/03 08:18:05;;;;;;;;;;;10.60;99.90;;;;;;4969989;28;20523;-73
2022/10/03 08:20:37;;;;;;;;;;;10.60;99.90;;;;;;4976516;28;20415;-75
2022/10/03 08:23:14;;;;;;;;;;;10.60;99.90;;;;;;4980690;28;20013;-75
2022/10/03 08:25:52;;;;;;;;;;;10.60;99.90;;;;;;4979021;28;19933;-76
2022/10/03 08:28:26;;;;;;;;;;;10.60;99.90;;;;;;4979174;28;20387;-76
2022/10/03 08:31:11;;;;;;;;;;;10.60;99.90;;;;;;4978387;28;19993;-78
2022/10/03 08:33:56;;;;;;;;;;;10.80;99.90;;;;;;4971174;28;19993;-77
2022/10/03 08:36:34;;;;;;;;;;;10.60;99.90;;;;;;4979212;28;19948;-76
2022/10/03 08:39:10;;;;;;;;;;;10.70;99.90;;;;;;4980589;28;20017;-75
2022/10/03 08:42:10;;;;;;;;;;;10.70;99.90;;;;;;4971411;28;19934;-77
2022/10/03 08:45:01;;;;;;;;;;;10.70;99.90;;;;;;4943585;28;19927;-85
2022/10/03 08:47:52;;;;;;;;;;;10.70;99.90;;;;;;4923354;28;19944;-79
2022/10/03 08:50:40;;;;;;;;;;;10.80;99.90;;;;;;4967000;28;20367;-89
2022/10/03 08:53:22;;;;;;;;;;;10.80;99.90;;;;;;4980580;28;20016;-81
2022/10/03 08:55:54;;;;;;;;;;;10.80;99.90;;;;;;4958279;28;19926;-83
2022/10/03 08:58:31;;;;;;;;;;;10.80;99.90;;;;;;4973936;28;19926;-80
2022/10/03 09:01:16;;;;;;;;;;;10.80;99.90;;;;;;4977351;28;20944;-82
2022/10/03 09:04:10;;;;;;;;;;;10.80;99.90;;;;;;4973967;28;19984;-77
2022/10/03 09:06:56;;;;;;;;;;;10.90;99.90;;;;;;4940367;28;20347;-78
2022/10/03 09:09:34;;;;;;;;;;;10.90;99.90;;;;;;4968906;28;20452;-75
2022/10/03 09:12:16;;;;;;;;;;;10.90;99.90;;;;;;4972749;28;19934;-75
2022/10/03 09:14:59;;;;;;;;;;;10.90;99.90;;;;;;4971484;28;20335;-75
2022/10/03 09:17:44;;;;;;;;;;;10.90;99.90;;;;;;4970012;28;20019;-75
2022/10/03 09:20:34;;;;;;;;;;;11.00;99.90;;;;;;4971657;28;20458;-93
2022/10/03 09:23:21;;;;;;;;;;;11.10;99.90;;;;;;4978516;28;19933;-75
2022/10/03 09:25:58;;;;;;;;;;;11.00;99.90;;;;;;4972071;28;19966;-88
2022/10/03 09:28:43;;;;;;;;;;;11.00;99.90;;;;;;4974136;28;19937;-76
2022/10/03 09:31:20;;;;;;;;;;;11.00;99.90;;;;;;4972263;28;19936;-75
2022/10/03 09:34:05;;;;;;;;;;;11.00;99.90;;;;;;4975059;28;19929;-75
2022/10/03 09:36:48;;;;;;;;;;;11.10;99.90;;;;;;4972705;28;20343;-75
2022/10/03 09:39:35;;;;;;;;;;;11.10;99.90;;;;;;4971896;28;19929;-75
2022/10/03 09:42:20;;;;;;;;;;;11.10;99.90;;;;;;4970379;28;20073;-76
2022/10/03 09:44:58;;;;;;;;;;;11.10;99.90;;;;;;4969822;28;19934;-75
2022/10/03 09:47:44;;;;;;;;;;;11.10;99.90;;;;;;4968694;28;19926;-76
2022/10/03 09:50:32;;;;;;;;;;;11.20;99.90;;;;;;4970881;28;19941;-76
2022/10/03 09:53:17;;;;;;;;;;;11.20;99.90;;;;;;4948477;28;19934;-76
2022/10/03 09:55:52;;;;;;;;;;;11.20;99.90;;;;;;4975919;28;19972;-79
2022/10/03 09:58:43;;;;;;;;;;;11.30;99.90;;;;;;4972095;28;19974;-78
2022/10/03 10:01:19;;;;;;;;;;;11.30;99.90;;;;;;4957276;28;19965;-78
2022/10/03 10:04:04;;;;;;;;;;;11.30;99.90;;;;;;4976561;28;20459;-77
2022/10/03 10:07:00;;;;;;;;;;;11.30;99.90;;;;;;4974882;28;20036;-77
2022/10/03 10:09:36;;;;;;;;;;;11.30;99.90;;;;;;4907605;29;20678;-78
2022/10/03 10:12:10;;;;;;;;;;;11.30;99.90;;;;;;4958082;28;19934;-78
2022/10/03 10:14:46;;;;;;;;;;;11.30;99.90;;;;;;4981008;28;19972;-77
2022/10/03 10:17:34;;;;;;;;;;;11.30;99.90;;;;;;4977732;28;20414;-77
2022/10/03 10:20:08;;;;;;;;;;;11.40;99.90;;;;;;4976147;28;20383;-78
2022/10/03 10:22:53;;;;;;;;;;;11.40;99.90;;;;;;4985044;28;19985;-78
2022/10/03 10:25:31;;;;;;;;;;;11.40;99.90;;;;;;4985797;28;20024;-78
2022/10/03 10:28:15;;;;;;;;;;;11.40;99.90;;;;;;4978220;28;20383;-77
2022/10/03 10:31:03;;;;;;;;;;;11.40;99.90;;;;;;4984182;28;20093;-78
2022/10/03 10:33:45;;;;;;;;;;;11.40;99.90;;;;;;4977926;28;19930;-78
2022/10/03 10:36:40;;;;;;;;;;;11.50;99.90;;;;;;4976729;28;19988;-78
2022/10/03 10:39:26;;;;;;;;;;;11.50;99.90;;;;;;4983488;28;20024;-77
2022/10/03 10:42:07;;;;;;;;;;;11.50;99.90;;;;;;4969744;28;19962;-77
2022/10/03 10:44:53;;;;;;;;;;;11.50;99.90;;;;;;4983880;28;19972;-79
2022/10/03 10:47:37;;;;;;;;;;;11.60;99.90;;;;;;4980891;28;20016;-78
2022/10/03 10:50:37;;;;;;;;;;;11.60;99.90;;;;;;4960897;28;20367;-78
2022/10/03 10:53:36;;;;;;;;;;;11.60;99.90;;;;;;4940347;28;20008;-77
2022/10/03 10:56:18;;;;;;;;;;;11.60;99.90;;;;;;4887595;29;20104;-78
2022/10/03 10:59:03;;;;;;;;;;;11.60;99.90;;;;;;4929037;28;19965;-78
2022/10/03 11:01:48;;;;;;;;;;;11.60;99.90;;;;;;4986895;28;19965;-78
2022/10/03 11:04:32;;;;;;;;;;;11.70;99.90;;;;;;4983966;28;19980;-78
2022/10/03 11:07:18;;;;;;;;;;;11.70;99.90;;;;;;4989270;28;19980;-78
2022/10/03 11:10:03;;;;;;;;;;;11.70;99.90;;;;;;4966239;28;20012;-77
2022/10/03 11:12:45;;;;;;;;;;;11.70;99.90;;;;;;4951714;28;19930;-78
2022/10/03 11:15:34;;;;;;;;;;;11.70;99.90;;;;;;4989521;28;19925;-77
2022/10/03 11:18:20;;;;;;;;;;;11.80;99.90;;;;;;4987871;28;20020;-78
2022/10/03 11:21:04;;;;;;;;;;;11.80;99.90;;;;;;4998134;28;19936;-78
2022/10/03 11:23:49;;;;;;;;;;;11.80;99.90;;;;;;4983633;28;19936;-77
2022/10/03 11:26:38;;;;;;;;;;;11.80;99.90;;;;;;4980643;28;19925;-77
2022/10/03 11:29:24;;;;;;;;;;;11.80;99.90;;;;;;4963307;28;19926;-78
2022/10/03 11:32:09;;;;;;;;;;;11.90;99.90;;;;;;4983278;28;19934;-78
2022/10/03 11:34:55;;;;;;;;;;;11.90;99.90;;;;;;4985071;28;19961;-77
2022/10/03 11:37:27;;;;;;;;;;;11.90;99.90;;;;;;4994279;28;19973;-78
2022/10/03 11:40:00;;;;;;;;;;;11.90;99.90;;;;;;4984402;28;20407;-78
2022/10/03 11:42:32;;;;;;;;;;;11.90;99.90;;;;;;4999360;28;19937;-78
2022/10/03 11:45:00;;;;;;;;;;;12.00;99.90;;;;;;4982160;28;19960;-78
2022/10/03 11:47:39;;;;;;;;;;;12.00;99.90;;;;;;4984549;28;20375;-77
2022/10/03 11:50:33;;;;;;;;;;;12.00;99.90;;;;;;4984528;28;19962;-78
2022/10/03 11:53:10;;;;;;;;;;;12.10;99.90;;;;;;4980246;28;20340;-78
2022/10/03 11:55:40;;;;;;;;;;;12.10;99.90;;;;;;4982034;28;20408;-77
2022/10/03 11:58:31;;;;;;;;;;;12.10;99.90;;;;;;4986160;28;20032;-78
2022/10/03 12:01:01;;;;;;;;;;;12.10;99.90;;;;;;4978621;28;20333;-78
2022/10/03 12:03:29;;;;;;;;;;;12.10;99.90;;;;;;4976050;28;20009;-78
2022/10/03 12:08:53;;;;;;;;;;;12.20;99.90;;;;;;4979841;28;20292;-77
2022/10/03 12:08:56;;;;;;;;;;;12.20;99.90;;;;;;4985188;28;20391;-78
2022/10/03 12:11:27;;;;;;;;;;;12.20;99.90;;;;;;4980117;28;20387;-78
2022/10/03 12:14:11;;;;;;;;;;;12.30;99.90;;;;;;4985003;28;19929;-78
2022/10/03 12:16:48;;;;;;;;;;;12.30;99.90;;;;;;4968637;28;19958;-78
2022/10/03 12:19:22;;;;;;;;;;;12.30;99.90;;;;;;4979414;28;19925;-78
2022/10/03 12:21:53;;;;;;;;;;;12.40;99.90;;;;;;4974125;28;20288;-78
2022/10/03 12:24:26;;;;;;;;;;;12.40;99.90;;;;;;4982791;28;20437;-77
2022/10/03 12:26:57;;;;;;;;;;;12.40;99.90;;;;;;4977085;28;19937;-78
2022/10/03 12:29:26;;;;;;;;;;;12.40;99.90;;;;;;4994627;28;19980;-77
2022/10/03 12:32:01;;;;;;;;;;;12.40;99.90;;;;;;4984341;28;19930;-78
2022/10/03 12:34:38;;;;;;;;;;;12.50;99.90;;;;;;4977259;28;19934;-78
2022/10/03 12:37:23;;;;;;;;;;;12.50;99.90;;;;;;4978846;28;19961;-79
2022/10/03 12:39:57;;;;;;;;;;;12.60;99.90;;;;;;4972454;28;19932;-79
2022/10/03 12:42:26;;;;;;;;;;;12.60;99.90;;;;;;4978934;28;20380;-79
2022/10/03 12:44:58;;;;;;;;;;;12.60;99.90;;;;;;4976248;28;19933;-78
2022/10/03 12:47:28;;;;;;;;;;;12.70;99.90;;;;;;4987880;28;19941;-78
2022/10/03 12:49:58;;;;;;;;;;;12.70;99.90;;;;;;4986549;28;19989;-78
2022/10/03 12:52:27;;;;;;;;;;;12.80;99.90;;;;;;4979303;28;20415;-77
2022/10/03 12:55:01;;;;;;;;;;;12.80;99.90;;;;;;4981408;28;19980;-78
2022/10/03 12:57:46;;;;;;;;;;;12.80;99.90;;;;;;4981250;28;19957;-77
2022/10/03 13:00:16;;;;;;;;;;;12.90;99.90;;;;;;4985977;28;20029;-78
2022/10/03 13:02:47;;;;;;;;;;;12.90;99.90;;;;;;4982920;28;19973;-78
2022/10/03 13:05:23;;;;;;;;;;;12.90;99.90;;;;;;4986360;28;19957;-78
2022/10/03 13:07:53;;;;;;;;;;;12.90;99.90;;;;;;4985332;28;20300;-78
2022/10/03 13:10:28;;;;;;;;;;;13.00;99.90;;;;;;4978500;28;19933;-77
2022/10/03 13:13:01;;;;;;;;;;;13.00;99.90;;;;;;4985130;28;19932;-78
2022/10/03 13:15:36;;;;;;;;;;;13.00;99.90;;;;;;4975714;28;19969;-78
2022/10/03 13:18:09;;;;;;;;;;;13.10;99.90;;;;;;4989326;28;20064;-78
2022/10/03 13:20:38;;;;;;;;;;;13.10;99.90;;;;;;4981071;28;19940;-77
2022/10/03 13:23:08;;;;;;;;;;;13.10;99.90;;;;;;4979166;28;19934;-77
2022/10/03 13:25:40;;;;;;;;;;;13.10;99.90;;;;;;4970251;28;19965;-77
2022/10/03 13:28:12;;;;;;;;;;;13.20;99.90;;;;;;4997359;28;19926;-77
2022/10/03 13:30:42;;;;;;;;;;;13.20;99.90;;;;;;4977625;28;20008;-77
2022/10/03 13:33:13;;;;;;;;;;;13.20;99.90;;;;;;4975659;28;19926;-77
2022/10/03 13:35:58;;;;;;;;;;;13.20;99.90;;;;;;4977976;28;19980;-76
2022/10/03 13:38:37;;;;;;;;;;;13.30;99.90;;;;;;4986385;28;19961;-77
2022/10/03 13:41:11;;;;;;;;;;;13.30;99.90;;;;;;4981631;28;19926;-76
2022/10/03 13:43:39;;;;;;;;;;;13.30;99.90;;;;;;4976656;28;19949;-77
2022/10/03 13:46:10;;;;;;;;;;;13.30;99.90;;;;;;4986412;28;20456;-76
2022/10/03 13:48:37;;;;;;;;;;;13.30;99.90;;;;;;4980525;28;20396;-76
2022/10/03 13:51:07;;;;;;;;;;;13.30;99.90;;;;;;4980692;28;19925;-77
2022/10/03 13:53:42;;;;;;;;;;;13.30;99.90;;;;;;4981575;28;19993;-77
2022/10/03 13:56:12;;;;;;;;;;;13.40;99.90;;;;;;4979723;28;19926;-76
2022/10/03 13:58:45;;;;;;;;;;;13.40;99.90;;;;;;4983414;28;19926;-77
2022/10/03 14:01:23;;;;;;;;;;;13.40;99.90;;;;;;4978168;28;19930;-77
2022/10/03 14:03:56;;;;;;;;;;;13.50;99.90;;;;;;4984276;28;19945;-77
2022/10/03 14:06:29;;;;;;;;;;;13.50;99.90;;;;;;4975652;28;20371;-77
2022/10/03 14:09:18;;;;;;;;;;;13.50;99.90;;;;;;4975912;28;19925;-77
2022/10/03 14:11:51;;;;;;;;;;;13.50;99.90;;;;;;4978975;28;19961;-77
2022/10/03 14:14:39;;;;;;;;;;;13.50;99.90;;;;;;4978813;28;20406;-77
2022/10/03 14:17:09;;;;;;;;;;;13.50;99.90;;;;;;4980597;28;19968;-77
2022/10/03 14:19:40;;;;;;;;;;;13.50;99.90;;;;;;4977001;28;19957;-77
2022/10/03 14:22:11;;;;;;;;;;;13.60;99.90;;;;;;4986011;28;20391;-77
2022/10/03 14:24:42;;;;;;;;;;;13.50;99.90;;;;;;4973641;28;19938;-76
2022/10/03 14:27:16;;;;;;;;;;;13.60;99.90;;;;;;4976285;28;20446;-77
2022/10/03 14:29:48;;;;;;;;;;;13.60;99.90;;;;;;4985224;28;20019;-76
2022/10/03 14:32:18;;;;;;;;;;;13.60;99.90;;;;;;4983482;28;21364;-76
2022/10/03 14:34:53;;;;;;;;;;;13.70;99.90;;;;;;4982871;28;20028;-77
2022/10/03 14:37:25;;;;;;;;;;;13.70;99.90;;;;;;4985631;28;21284;-77
2022/10/03 14:39:59;;;;;;;;;;;13.70;99.90;;;;;;4980524;28;19969;-77
2022/10/03 14:42:47;;;;;;;;;;;13.70;99.90;;;;;;4980761;28;20022;-77
2022/10/03 14:45:16;;;;;;;;;;;13.70;99.90;;;;;;4977391;28;19930;-77
2022/10/03 14:47:48;;;;;;;;;;;13.70;99.90;;;;;;4985570;28;20173;-76
2022/10/03 14:50:15;;;;;;;;;;;13.70;99.90;;;;;;4983270;28;19961;-77
2022/10/03 14:52:44;;;;;;;;;;;13.70;99.90;;;;;;4981291;28;20402;-76
2022/10/03 14:55:13;;;;;;;;;;;13.80;99.90;;;;;;4978861;28;19964;-77
2022/10/03 14:57:42;;;;;;;;;;;13.80;99.90;;;;;;4983793;28;19926;-76
2022/10/03 15:00:22;;;;;;;;;;;13.80;99.90;;;;;;4977833;28;19930;-76
2022/10/03 15:02:50;;;;;;;;;;;13.80;99.90;;;;;;4984699;28;19926;-77
2022/10/03 15:05:23;;;;;;;;;;;13.80;99.90;;;;;;4984797;28;21429;-77
2022/10/03 15:07:50;;;;;;;;;;;13.80;99.90;;;;;;4983349;28;19934;-77
2022/10/03 15:10:19;;;;;;;;;;;13.80;99.90;;;;;;4987695;28;19980;-77
2022/10/03 15:12:47;;;;;;;;;;;13.80;99.90;;;;;;4983038;28;19932;-77
2022/10/03 15:15:16;;;;;;;;;;;13.80;99.90;;;;;;4987741;28;19934;-77
2022/10/03 15:17:47;;;;;;;;;;;13.80;99.90;;;;;;4974729;28;19926;-77
2022/10/03 15:20:19;;;;;;;;;;;13.80;99.90;;;;;;4982158;28;19976;-76
2022/10/03 15:22:47;;;;;;;;;;;13.90;99.90;;;;;;4985699;28;19926;-77
2022/10/03 15:25:17;;;;;;;;;;;13.90;99.90;;;;;;4978974;28;20515;-77
2022/10/03 15:27:45;;;;;;;;;;;13.90;99.90;;;;;;4980853;28;19936;-76